Glenn Heights, Texas
Current Conditions -  °F | °C
As of 11:15 AM on Friday 24 Oct 2014 (Local Time) from KJWY Reporting Station
Overcast Overcast  
Wind Chill: 71°   Ceiling: 4900
Heat Index: 71°   Visibility: 10mi
Dew Point: 55°   Wind: 8mph
Humidity: 57%   Direction: 190°S
Pressure: 30.2"   Gusts: NA
Location:  32.515°N, 96.8153°W
Report Text: KJWY 241615Z AUTO 19007KT 10SM BKN049 OVC060 22/13 A3020 RMK AO2 T02180129
Loading
Personal Weather Stations






























Interactive Weather Map
Tropical Storm Tracking
New forecast layout! Learn more

10-Day Weather Forecast

Advertisements
Track Severe Weather on mobile